sensor_id;sensor_type;location;lat;lon;timestamp;P1;durP1;ratioP1;P2;durP2;ratioP2
25155;SDS011;71253;51.496;7.606;2023-11-19T00:03:27;2.25;;;1.02;;
25155;SDS011;71253;51.496;7.606;2023-11-19T00:08:29;2.58;;;0.85;;
25155;SDS011;71253;51.496;7.606;2023-11-19T00:13:32;4.20;;;1.17;;
25155;SDS011;71253;51.496;7.606;2023-11-19T00:18:33;2.13;;;1.00;;
25155;SDS011;71253;51.496;7.606;2023-11-19T00:23:35;2.90;;;1.15;;
25155;SDS011;71253;51.496;7.606;2023-11-19T00:28:38;1.35;;;1.02;;
25155;SDS011;71253;51.496;7.606;2023-11-19T00:33:40;1.92;;;1.25;;
25155;SDS011;71253;51.496;7.606;2023-11-19T00:38:45;2.75;;;1.50;;
25155;SDS011;71253;51.496;7.606;2023-11-19T00:43:46;3.00;;;1.80;;
25155;SDS011;71253;51.496;7.606;2023-11-19T00:48:48;4.32;;;2.00;;
25155;SDS011;71253;51.496;7.606;2023-11-19T00:53:50;4.30;;;2.30;;
25155;SDS011;71253;51.496;7.606;2023-11-19T00:58:51;6.88;;;3.03;;
25155;SDS011;71253;51.496;7.606;2023-11-19T01:03:53;5.18;;;3.22;;
25155;SDS011;71253;51.496;7.606;2023-11-19T01:08:55;8.90;;;4.10;;
25155;SDS011;71253;51.496;7.606;2023-11-19T01:13:57;11.68;;;4.25;;
25155;SDS011;71253;51.496;7.606;2023-11-19T01:18:59;7.45;;;4.35;;
25155;SDS011;71253;51.496;7.606;2023-11-19T01:24:05;7.65;;;4.13;;
25155;SDS011;71253;51.496;7.606;2023-11-19T01:29:07;8.27;;;4.47;;
25155;SDS011;71253;51.496;7.606;2023-11-19T01:34:09;6.47;;;4.88;;
25155;SDS011;71253;51.496;7.606;2023-11-19T01:39:11;10.38;;;4.72;;
25155;SDS011;71253;51.496;7.606;2023-11-19T01:44:13;9.05;;;5.43;;
25155;SDS011;71253;51.496;7.606;2023-11-19T01:49:15;7.90;;;5.43;;
25155;SDS011;71253;51.496;7.606;2023-11-19T01:54:18;13.57;;;5.80;;
25155;SDS011;71253;51.496;7.606;2023-11-19T01:59:20;8.10;;;5.43;;
25155;SDS011;71253;51.496;7.606;2023-11-19T02:04:22;8.25;;;5.85;;
25155;SDS011;71253;51.496;7.606;2023-11-19T02:09:24;8.75;;;5.85;;
25155;SDS011;71253;51.496;7.606;2023-11-19T02:14:26;9.30;;;6.32;;
25155;SDS011;71253;51.496;7.606;2023-11-19T02:19:28;15.90;;;6.00;;
25155;SDS011;71253;51.496;7.606;2023-11-19T02:24:29;7.15;;;5.13;;
25155;SDS011;71253;51.496;7.606;2023-11-19T02:29:33;9.57;;;4.90;;
25155;SDS011;71253;51.496;7.606;2023-11-19T02:34:35;10.45;;;5.20;;
25155;SDS011;71253;51.496;7.606;2023-11-19T02:39:36;7.03;;;4.45;;
25155;SDS011;71253;51.496;7.606;2023-11-19T02:44:38;11.60;;;4.78;;
25155;SDS011;71253;51.496;7.606;2023-11-19T02:49:40;16.13;;;4.43;;
25155;SDS011;71253;51.496;7.606;2023-11-19T02:54:42;13.18;;;3.75;;
25155;SDS011;71253;51.496;7.606;2023-11-19T02:59:44;14.45;;;3.50;;
25155;SDS011;71253;51.496;7.606;2023-11-19T03:04:46;19.42;;;3.40;;
25155;SDS011;71253;51.496;7.606;2023-11-19T03:09:47;16.42;;;3.20;;
25155;SDS011;71253;51.496;7.606;2023-11-19T03:14:50;15.20;;;3.13;;
25155;SDS011;71253;51.496;7.606;2023-11-19T03:19:52;23.88;;;3.08;;
25155;SDS011;71253;51.496;7.606;2023-11-19T03:24:53;20.98;;;3.75;;
25155;SDS011;71253;51.496;7.606;2023-11-19T03:29:55;26.80;;;4.03;;
25155;SDS011;71253;51.496;7.606;2023-11-19T03:34:56;24.23;;;3.65;;
25155;SDS011;71253;51.496;7.606;2023-11-19T03:39:58;36.25;;;4.07;;
25155;SDS011;71253;51.496;7.606;2023-11-19T03:45:02;31.77;;;4.47;;
25155;SDS011;71253;51.496;7.606;2023-11-19T03:50:04;22.38;;;4.57;;
25155;SDS011;71253;51.496;7.606;2023-11-19T03:55:06;33.92;;;4.80;;
25155;SDS011;71253;51.496;7.606;2023-11-19T04:00:08;31.55;;;5.20;;
25155;SDS011;71253;51.496;7.606;2023-11-19T04:05:14;30.38;;;4.28;;
25155;SDS011;71253;51.496;7.606;2023-11-19T04:10:16;31.35;;;4.95;;
25155;SDS011;71253;51.496;7.606;2023-11-19T04:15:17;34.90;;;5.32;;
25155;SDS011;71253;51.496;7.606;2023-11-19T04:20:19;41.00;;;5.82;;
25155;SDS011;71253;51.496;7.606;2023-11-19T04:25:21;41.17;;;5.72;;
25155;SDS011;71253;51.496;7.606;2023-11-19T04:30:24;32.78;;;5.55;;
25155;SDS011;71253;51.496;7.606;2023-11-19T04:35:26;36.03;;;5.70;;
25155;SDS011;71253;51.496;7.606;2023-11-19T04:40:28;41.53;;;5.32;;
25155;SDS011;71253;51.496;7.606;2023-11-19T04:45:30;33.72;;;5.28;;
25155;SDS011;71253;51.496;7.606;2023-11-19T04:50:31;35.35;;;5.28;;
25155;SDS011;71253;51.496;7.606;2023-11-19T04:55:33;42.22;;;5.63;;
25155;SDS011;71253;51.496;7.606;2023-11-19T05:00:34;38.88;;;5.07;;
25155;SDS011;71253;51.496;7.606;2023-11-19T05:05:36;48.78;;;5.85;;
25155;SDS011;71253;51.496;7.606;2023-11-19T05:10:38;38.92;;;5.35;;
25155;SDS011;71253;51.496;7.606;2023-11-19T05:15:39;50.17;;;5.38;;
25155;SDS011;71253;51.496;7.606;2023-11-19T05:20:41;41.97;;;5.38;;
25155;SDS011;71253;51.496;7.606;2023-11-19T05:25:42;40.70;;;6.00;;
25155;SDS011;71253;51.496;7.606;2023-11-19T05:30:44;44.00;;;5.82;;
25155;SDS011;71253;51.496;7.606;2023-11-19T05:35:46;63.80;;;6.80;;
25155;SDS011;71253;51.496;7.606;2023-11-19T05:40:47;53.30;;;6.75;;
25155;SDS011;71253;51.496;7.606;2023-11-19T05:45:49;54.22;;;6.70;;
25155;SDS011;71253;51.496;7.606;2023-11-19T05:50:51;46.33;;;6.53;;
25155;SDS011;71253;51.496;7.606;2023-11-19T05:55:52;52.42;;;6.50;;
25155;SDS011;71253;51.496;7.606;2023-11-19T06:00:54;59.00;;;7.65;;
25155;SDS011;71253;51.496;7.606;2023-11-19T06:05:57;48.33;;;5.85;;
25155;SDS011;71253;51.496;7.606;2023-11-19T06:10:58;51.70;;;7.18;;
25155;SDS011;71253;51.496;7.606;2023-11-19T06:16:00;54.22;;;7.38;;
25155;SDS011;71253;51.496;7.606;2023-11-19T06:21:01;49.05;;;5.85;;
25155;SDS011;71253;51.496;7.606;2023-11-19T06:26:03;57.65;;;5.93;;
25155;SDS011;71253;51.496;7.606;2023-11-19T06:31:07;49.63;;;5.97;;
25155;SDS011;71253;51.496;7.606;2023-11-19T06:36:09;51.90;;;7.30;;
25155;SDS011;71253;51.496;7.606;2023-11-19T06:41:11;41.75;;;5.95;;
25155;SDS011;71253;51.496;7.606;2023-11-19T06:46:16;46.70;;;5.93;;
25155;SDS011;71253;51.496;7.606;2023-11-19T06:51:19;48.30;;;6.57;;
25155;SDS011;71253;51.496;7.606;2023-11-19T06:56:21;47.60;;;6.10;;
25155;SDS011;71253;51.496;7.606;2023-11-19T07:01:24;53.42;;;6.75;;
25155;SDS011;71253;51.496;7.606;2023-11-19T07:06:26;43.53;;;5.90;;
25155;SDS011;71253;51.496;7.606;2023-11-19T07:11:31;45.75;;;6.78;;
25155;SDS011;71253;51.496;7.606;2023-11-19T07:16:33;48.85;;;6.03;;
25155;SDS011;71253;51.496;7.606;2023-11-19T07:21:36;45.75;;;5.60;;
25155;SDS011;71253;51.496;7.606;2023-11-19T07:26:40;52.70;;;6.90;;
25155;SDS011;71253;51.496;7.606;2023-11-19T07:31:43;41.20;;;6.45;;
25155;SDS011;71253;51.496;7.606;2023-11-19T07:36:46;58.25;;;7.13;;
25155;SDS011;71253;51.496;7.606;2023-11-19T07:41:49;41.67;;;6.53;;
25155;SDS011;71253;51.496;7.606;2023-11-19T07:46:51;43.88;;;6.60;;
25155;SDS011;71253;51.496;7.606;2023-11-19T07:51:52;49.05;;;6.20;;
25155;SDS011;71253;51.496;7.606;2023-11-19T07:56:54;43.92;;;6.18;;
25155;SDS011;71253;51.496;7.606;2023-11-19T08:01:56;49.20;;;6.50;;
25155;SDS011;71253;51.496;7.606;2023-11-19T08:06:58;52.35;;;6.30;;
25155;SDS011;71253;51.496;7.606;2023-11-19T08:11:59;52.53;;;6.72;;
25155;SDS011;71253;51.496;7.606;2023-11-19T08:17:01;46.92;;;6.53;;
25155;SDS011;71253;51.496;7.606;2023-11-19T08:22:03;58.45;;;6.10;;
25155;SDS011;71253;51.496;7.606;2023-11-19T08:27:04;49.70;;;6.97;;
25155;SDS011;71253;51.496;7.606;2023-11-19T08:32:06;54.38;;;6.68;;
25155;SDS011;71253;51.496;7.606;2023-11-19T08:37:08;53.88;;;7.07;;
25155;SDS011;71253;51.496;7.606;2023-11-19T08:42:09;50.47;;;6.65;;
25155;SDS011;71253;51.496;7.606;2023-11-19T08:47:11;58.10;;;6.35;;
25155;SDS011;71253;51.496;7.606;2023-11-19T08:52:14;50.13;;;7.30;;
25155;SDS011;71253;51.496;7.606;2023-11-19T08:57:15;62.47;;;6.53;;
25155;SDS011;71253;51.496;7.606;2023-11-19T09:02:17;49.50;;;6.60;;
25155;SDS011;71253;51.496;7.606;2023-11-19T09:07:18;54.78;;;7.55;;
25155;SDS011;71253;51.496;7.606;2023-11-19T09:12:20;51.25;;;6.63;;
25155;SDS011;71253;51.496;7.606;2023-11-19T09:17:25;56.15;;;6.97;;
25155;SDS011;71253;51.496;7.606;2023-11-19T09:22:26;46.83;;;6.80;;
25155;SDS011;71253;51.496;7.606;2023-11-19T09:27:28;54.72;;;6.80;;
25155;SDS011;71253;51.496;7.606;2023-11-19T09:32:30;55.47;;;6.32;;
25155;SDS011;71253;51.496;7.606;2023-11-19T09:37:32;51.30;;;6.68;;
25155;SDS011;71253;51.496;7.606;2023-11-19T09:42:34;45.05;;;7.10;;
25155;SDS011;71253;51.496;7.606;2023-11-19T09:47:45;52.63;;;7.00;;
25155;SDS011;71253;51.496;7.606;2023-11-19T09:52:48;44.88;;;5.90;;
25155;SDS011;71253;51.496;7.606;2023-11-19T09:57:49;57.38;;;6.60;;
25155;SDS011;71253;51.496;7.606;2023-11-19T10:02:54;48.22;;;6.47;;
25155;SDS011;71253;51.496;7.606;2023-11-19T10:07:57;48.47;;;6.80;;
25155;SDS011;71253;51.496;7.606;2023-11-19T10:12:58;55.92;;;7.32;;
25155;SDS011;71253;51.496;7.606;2023-11-19T10:18:00;59.13;;;6.70;;
25155;SDS011;71253;51.496;7.606;2023-11-19T10:23:02;56.42;;;7.05;;
25155;SDS011;71253;51.496;7.606;2023-11-19T10:28:03;56.80;;;7.97;;
25155;SDS011;71253;51.496;7.606;2023-11-19T10:38:15;41.90;;;6.53;;
25155;SDS011;71253;51.496;7.606;2023-11-19T10:43:17;45.22;;;7.25;;
25155;SDS011;71253;51.496;7.606;2023-11-19T10:48:20;60.53;;;7.53;;
25155;SDS011;71253;51.496;7.606;2023-11-19T10:53:21;42.38;;;6.72;;
25155;SDS011;71253;51.496;7.606;2023-11-19T10:58:25;51.15;;;6.88;;
25155;SDS011;71253;51.496;7.606;2023-11-19T11:03:31;53.85;;;7.13;;
25155;SDS011;71253;51.496;7.606;2023-11-19T11:08:40;54.75;;;7.50;;
25155;SDS011;71253;51.496;7.606;2023-11-19T11:13:43;48.80;;;6.95;;
25155;SDS011;71253;51.496;7.606;2023-11-19T11:18:48;49.55;;;6.93;;
25155;SDS011;71253;51.496;7.606;2023-11-19T11:29:01;47.30;;;6.90;;
25155;SDS011;71253;51.496;7.606;2023-11-19T11:39:33;43.92;;;6.55;;
25155;SDS011;71253;51.496;7.606;2023-11-19T11:50:05;39.42;;;5.88;;
25155;SDS011;71253;51.496;7.606;2023-11-19T11:55:13;42.78;;;6.20;;
25155;SDS011;71253;51.496;7.606;2023-11-19T12:00:32;44.05;;;5.85;;
25155;SDS011;71253;51.496;7.606;2023-11-19T12:05:41;47.65;;;6.15;;
25155;SDS011;71253;51.496;7.606;2023-11-19T12:10:47;37.47;;;5.65;;
25155;SDS011;71253;51.496;7.606;2023-11-19T12:20:59;37.92;;;5.45;;
25155;SDS011;71253;51.496;7.606;2023-11-19T12:26:01;46.25;;;5.82;;
25155;SDS011;71253;51.496;7.606;2023-11-19T12:31:09;35.97;;;5.65;;
25155;SDS011;71253;51.496;7.606;2023-11-19T12:36:11;38.03;;;5.65;;
25155;SDS011;71253;51.496;7.606;2023-11-19T12:41:13;36.67;;;5.40;;
25155;SDS011;71253;51.496;7.606;2023-11-19T12:51:20;39.20;;;5.32;;
25155;SDS011;71253;51.496;7.606;2023-11-19T12:56:22;34.65;;;5.25;;
25155;SDS011;71253;51.496;7.606;2023-11-19T13:01:24;40.30;;;5.97;;
25155;SDS011;71253;51.496;7.606;2023-11-19T13:06:25;46.63;;;5.60;;
25155;SDS011;71253;51.496;7.606;2023-11-19T13:11:31;37.63;;;5.55;;
25155;SDS011;71253;51.496;7.606;2023-11-19T13:16:35;35.58;;;6.18;;
25155;SDS011;71253;51.496;7.606;2023-11-19T13:21:38;39.47;;;5.50;;
25155;SDS011;71253;51.496;7.606;2023-11-19T13:26:40;43.75;;;5.78;;
25155;SDS011;71253;51.496;7.606;2023-11-19T13:31:41;49.35;;;5.90;;
25155;SDS011;71253;51.496;7.606;2023-11-19T13:36:43;43.13;;;5.70;;
25155;SDS011;71253;51.496;7.606;2023-11-19T13:41:45;43.90;;;5.15;;
25155;SDS011;71253;51.496;7.606;2023-11-19T13:46:46;37.92;;;5.20;;
25155;SDS011;71253;51.496;7.606;2023-11-19T13:51:48;29.88;;;4.30;;
25155;SDS011;71253;51.496;7.606;2023-11-19T13:56:50;30.20;;;4.05;;
25155;SDS011;71253;51.496;7.606;2023-11-19T14:01:51;32.63;;;4.60;;
25155;SDS011;71253;51.496;7.606;2023-11-19T14:06:53;33.58;;;4.65;;
25155;SDS011;71253;51.496;7.606;2023-11-19T14:11:55;29.23;;;4.40;;
25155;SDS011;71253;51.496;7.606;2023-11-19T14:16:56;29.98;;;4.93;;
25155;SDS011;71253;51.496;7.606;2023-11-19T14:22:13;38.30;;;5.18;;
25155;SDS011;71253;51.496;7.606;2023-11-19T14:27:15;42.45;;;4.90;;
25155;SDS011;71253;51.496;7.606;2023-11-19T14:32:17;34.45;;;5.50;;
25155;SDS011;71253;51.496;7.606;2023-11-19T14:37:18;41.53;;;5.40;;
25155;SDS011;71253;51.496;7.606;2023-11-19T14:42:21;33.50;;;4.72;;
25155;SDS011;71253;51.496;7.606;2023-11-19T14:47:22;37.85;;;4.88;;
25155;SDS011;71253;51.496;7.606;2023-11-19T14:52:24;33.92;;;5.00;;
25155;SDS011;71253;51.496;7.606;2023-11-19T14:57:26;38.35;;;5.10;;
25155;SDS011;71253;51.496;7.606;2023-11-19T15:02:27;36.63;;;5.00;;
25155;SDS011;71253;51.496;7.606;2023-11-19T15:07:29;28.33;;;4.00;;
25155;SDS011;71253;51.496;7.606;2023-11-19T15:12:31;39.60;;;5.15;;
25155;SDS011;71253;51.496;7.606;2023-11-19T15:17:32;37.95;;;5.07;;
25155;SDS011;71253;51.496;7.606;2023-11-19T15:22:34;41.78;;;5.50;;
25155;SDS011;71253;51.496;7.606;2023-11-19T15:27:36;35.47;;;4.65;;
25155;SDS011;71253;51.496;7.606;2023-11-19T15:32:37;33.70;;;4.90;;
25155;SDS011;71253;51.496;7.606;2023-11-19T15:37:39;29.40;;;4.88;;
25155;SDS011;71253;51.496;7.606;2023-11-19T15:42:41;31.27;;;4.60;;
25155;SDS011;71253;51.496;7.606;2023-11-19T15:47:43;39.72;;;5.10;;
25155;SDS011;71253;51.496;7.606;2023-11-19T15:52:45;32.15;;;4.57;;
25155;SDS011;71253;51.496;7.606;2023-11-19T15:57:46;30.10;;;4.60;;
25155;SDS011;71253;51.496;7.606;2023-11-19T16:02:49;32.50;;;5.35;;
25155;SDS011;71253;51.496;7.606;2023-11-19T16:07:51;38.33;;;5.00;;
25155;SDS011;71253;51.496;7.606;2023-11-19T16:12:52;34.35;;;4.47;;
25155;SDS011;71253;51.496;7.606;2023-11-19T16:17:54;34.30;;;4.75;;
25155;SDS011;71253;51.496;7.606;2023-11-19T16:22:56;43.63;;;5.30;;
25155;SDS011;71253;51.496;7.606;2023-11-19T16:27:58;38.92;;;4.68;;
25155;SDS011;71253;51.496;7.606;2023-11-19T16:33:00;35.08;;;5.75;;
25155;SDS011;71253;51.496;7.606;2023-11-19T16:38:01;35.70;;;5.20;;
25155;SDS011;71253;51.496;7.606;2023-11-19T16:43:03;41.42;;;5.75;;
25155;SDS011;71253;51.496;7.606;2023-11-19T16:48:05;36.78;;;4.85;;
25155;SDS011;71253;51.496;7.606;2023-11-19T16:53:07;39.70;;;4.70;;
25155;SDS011;71253;51.496;7.606;2023-11-19T16:58:08;46.55;;;6.10;;
25155;SDS011;71253;51.496;7.606;2023-11-19T17:03:11;47.92;;;6.18;;
25155;SDS011;71253;51.496;7.606;2023-11-19T17:08:12;43.65;;;5.32;;
25155;SDS011;71253;51.496;7.606;2023-11-19T17:13:14;47.03;;;6.35;;
25155;SDS011;71253;51.496;7.606;2023-11-19T17:18:16;43.03;;;5.40;;
25155;SDS011;71253;51.496;7.606;2023-11-19T17:23:17;50.67;;;6.88;;
25155;SDS011;71253;51.496;7.606;2023-11-19T17:28:19;45.97;;;6.85;;
25155;SDS011;71253;51.496;7.606;2023-11-19T17:33:21;58.63;;;6.15;;
25155;SDS011;71253;51.496;7.606;2023-11-19T17:38:22;48.72;;;6.53;;
25155;SDS011;71253;51.496;7.606;2023-11-19T17:43:27;59.45;;;6.78;;
25155;SDS011;71253;51.496;7.606;2023-11-19T17:48:30;61.35;;;6.80;;
25155;SDS011;71253;51.496;7.606;2023-11-19T17:53:31;46.13;;;6.22;;
25155;SDS011;71253;51.496;7.606;2023-11-19T17:58:33;44.53;;;6.28;;
25155;SDS011;71253;51.496;7.606;2023-11-19T18:03:35;45.35;;;6.13;;
25155;SDS011;71253;51.496;7.606;2023-11-19T18:08:38;34.05;;;4.97;;
25155;SDS011;71253;51.496;7.606;2023-11-19T18:13:40;45.63;;;5.65;;
25155;SDS011;71253;51.496;7.606;2023-11-19T18:18:41;42.00;;;5.93;;
25155;SDS011;71253;51.496;7.606;2023-11-19T18:23:43;49.05;;;6.32;;
25155;SDS011;71253;51.496;7.606;2023-11-19T18:28:45;45.45;;;5.78;;
25155;SDS011;71253;51.496;7.606;2023-11-19T18:33:47;39.00;;;5.13;;
25155;SDS011;71253;51.496;7.606;2023-11-19T18:38:49;47.53;;;5.30;;
25155;SDS011;71253;51.496;7.606;2023-11-19T18:43:50;46.90;;;6.07;;
25155;SDS011;71253;51.496;7.606;2023-11-19T18:48:52;46.67;;;6.40;;
25155;SDS011;71253;51.496;7.606;2023-11-19T18:53:54;38.80;;;6.07;;
25155;SDS011;71253;51.496;7.606;2023-11-19T18:58:56;51.45;;;7.80;;
25155;SDS011;71253;51.496;7.606;2023-11-19T19:03:58;54.45;;;6.97;;
25155;SDS011;71253;51.496;7.606;2023-11-19T19:09:02;46.80;;;6.50;;
25155;SDS011;71253;51.496;7.606;2023-11-19T19:14:09;54.97;;;7.07;;
25155;SDS011;71253;51.496;7.606;2023-11-19T19:19:12;56.08;;;6.75;;
25155;SDS011;71253;51.496;7.606;2023-11-19T19:24:15;45.60;;;5.82;;
25155;SDS011;71253;51.496;7.606;2023-11-19T19:29:24;53.13;;;6.85;;
25155;SDS011;71253;51.496;7.606;2023-11-19T19:34:28;42.55;;;5.75;;
25155;SDS011;71253;51.496;7.606;2023-11-19T19:39:32;48.38;;;6.10;;
25155;SDS011;71253;51.496;7.606;2023-11-19T19:44:35;35.67;;;5.30;;
25155;SDS011;71253;51.496;7.606;2023-11-19T19:49:38;27.17;;;3.90;;
25155;SDS011;71253;51.496;7.606;2023-11-19T19:54:41;27.08;;;4.07;;
25155;SDS011;71253;51.496;7.606;2023-11-19T19:59:43;18.40;;;3.85;;
25155;SDS011;71253;51.496;7.606;2023-11-19T20:04:46;22.88;;;4.15;;
25155;SDS011;71253;51.496;7.606;2023-11-19T20:09:52;17.88;;;3.60;;
25155;SDS011;71253;51.496;7.606;2023-11-19T20:14:54;17.33;;;3.65;;
25155;SDS011;71253;51.496;7.606;2023-11-19T20:19:56;17.80;;;3.22;;
25155;SDS011;71253;51.496;7.606;2023-11-19T20:24:58;16.95;;;2.80;;
25155;SDS011;71253;51.496;7.606;2023-11-19T20:30:00;16.08;;;2.75;;
25155;SDS011;71253;51.496;7.606;2023-11-19T20:35:02;14.93;;;2.85;;
25155;SDS011;71253;51.496;7.606;2023-11-19T20:40:04;11.68;;;3.08;;
25155;SDS011;71253;51.496;7.606;2023-11-19T20:45:06;11.85;;;2.95;;
25155;SDS011;71253;51.496;7.606;2023-11-19T20:50:09;10.40;;;2.25;;
25155;SDS011;71253;51.496;7.606;2023-11-19T20:55:12;11.70;;;2.08;;
25155;SDS011;71253;51.496;7.606;2023-11-19T21:00:13;13.57;;;1.95;;
25155;SDS011;71253;51.496;7.606;2023-11-19T21:05:15;7.88;;;1.63;;
25155;SDS011;71253;51.496;7.606;2023-11-19T21:10:18;10.25;;;1.70;;
25155;SDS011;71253;51.496;7.606;2023-11-19T21:15:20;8.02;;;1.95;;
25155;SDS011;71253;51.496;7.606;2023-11-19T21:20:22;8.13;;;1.60;;
25155;SDS011;71253;51.496;7.606;2023-11-19T21:25:24;7.53;;;1.83;;
25155;SDS011;71253;51.496;7.606;2023-11-19T21:30:25;7.13;;;1.77;;
25155;SDS011;71253;51.496;7.606;2023-11-19T21:35:27;6.20;;;1.70;;
25155;SDS011;71253;51.496;7.606;2023-11-19T21:40:28;9.07;;;1.73;;
25155;SDS011;71253;51.496;7.606;2023-11-19T21:45:32;10.43;;;2.00;;
25155;SDS011;71253;51.496;7.606;2023-11-19T21:50:33;10.45;;;2.30;;
25155;SDS011;71253;51.496;7.606;2023-11-19T21:55:35;11.57;;;2.20;;
25155;SDS011;71253;51.496;7.606;2023-11-19T22:00:37;6.20;;;1.83;;
25155;SDS011;71253;51.496;7.606;2023-11-19T22:05:38;9.68;;;2.08;;
25155;SDS011;71253;51.496;7.606;2023-11-19T22:10:40;12.02;;;2.05;;
25155;SDS011;71253;51.496;7.606;2023-11-19T22:15:44;12.73;;;2.10;;
25155;SDS011;71253;51.496;7.606;2023-11-19T22:20:45;11.25;;;2.20;;
25155;SDS011;71253;51.496;7.606;2023-11-19T22:25:47;10.30;;;1.88;;
25155;SDS011;71253;51.496;7.606;2023-11-19T22:30:49;11.90;;;2.22;;
25155;SDS011;71253;51.496;7.606;2023-11-19T22:35:50;9.50;;;1.98;;
25155;SDS011;71253;51.496;7.606;2023-11-19T22:40:52;13.43;;;2.33;;
25155;SDS011;71253;51.496;7.606;2023-11-19T22:45:54;12.43;;;2.72;;
25155;SDS011;71253;51.496;7.606;2023-11-19T22:50:56;16.60;;;2.92;;
25155;SDS011;71253;51.496;7.606;2023-11-19T22:55:57;20.77;;;2.67;;
25155;SDS011;71253;51.496;7.606;2023-11-19T23:00:59;9.50;;;2.33;;
25155;SDS011;71253;51.496;7.606;2023-11-19T23:06:01;19.20;;;2.88;;
25155;SDS011;71253;51.496;7.606;2023-11-19T23:11:03;15.43;;;2.80;;
25155;SDS011;71253;51.496;7.606;2023-11-19T23:16:05;18.15;;;2.60;;
25155;SDS011;71253;51.496;7.606;2023-11-19T23:21:06;19.02;;;3.20;;
25155;SDS011;71253;51.496;7.606;2023-11-19T23:26:08;16.95;;;2.72;;
25155;SDS011;71253;51.496;7.606;2023-11-19T23:31:10;15.45;;;2.65;;
25155;SDS011;71253;51.496;7.606;2023-11-19T23:36:11;23.83;;;3.33;;
25155;SDS011;71253;51.496;7.606;2023-11-19T23:41:13;16.65;;;2.60;;
25155;SDS011;71253;51.496;7.606;2023-11-19T23:46:15;15.18;;;2.67;;
25155;SDS011;71253;51.496;7.606;2023-11-19T23:51:16;14.52;;;2.35;;
25155;SDS011;71253;51.496;7.606;2023-11-19T23:56:18;12.73;;;2.55;;
